createdAt,value
2023-12-18T00:01:58.063Z,99.90
2023-12-18T00:04:59.699Z,99.90
2023-12-18T00:08:01.258Z,99.90
2023-12-18T00:11:03.442Z,99.90
2023-12-18T00:14:05.074Z,99.90
2023-12-18T00:17:06.778Z,99.90
2023-12-18T00:20:08.377Z,99.90
2023-12-18T00:23:10.313Z,99.90
2023-12-18T00:26:11.958Z,99.90
2023-12-18T00:29:13.679Z,99.90
2023-12-18T00:32:15.292Z,99.90
2023-12-18T00:35:16.877Z,99.90
2023-12-18T00:38:21.191Z,99.90
2023-12-18T00:41:22.870Z,99.90
2023-12-18T00:44:24.486Z,99.90
2023-12-18T00:47:26.160Z,99.90
2023-12-18T00:50:27.847Z,99.90
2023-12-18T00:53:29.722Z,99.90
2023-12-18T00:56:31.489Z,99.90
2023-12-18T00:59:33.051Z,99.90
2023-12-18T01:02:34.765Z,99.90
2023-12-18T01:05:36.350Z,99.90
2023-12-18T01:08:37.971Z,99.90
2023-12-18T01:11:39.613Z,99.90
2023-12-18T01:14:42.914Z,99.90
2023-12-18T01:17:44.924Z,99.90
2023-12-18T01:20:46.639Z,99.90
2023-12-18T01:23:48.226Z,99.90
2023-12-18T01:26:49.846Z,99.90
2023-12-18T01:29:51.438Z,99.90
2023-12-18T01:32:53.168Z,99.90
2023-12-18T01:35:54.766Z,99.90
2023-12-18T01:38:56.757Z,99.90
2023-12-18T01:41:58.335Z,99.90
2023-12-18T01:44:59.924Z,99.90
2023-12-18T01:48:01.616Z,99.90
2023-12-18T01:51:03.302Z,99.90
2023-12-18T01:54:04.965Z,99.90
2023-12-18T01:57:06.592Z,99.90
2023-12-18T02:00:08.270Z,99.90
2023-12-18T02:03:10.161Z,99.90
2023-12-18T02:06:11.825Z,99.90
2023-12-18T02:09:13.540Z,99.90
2023-12-18T02:12:15.274Z,99.90
2023-12-18T02:15:17.000Z,99.90
2023-12-18T02:18:19.295Z,99.90
2023-12-18T02:21:21.103Z,99.90
2023-12-18T02:24:22.880Z,99.90
2023-12-18T02:27:24.475Z,99.90
2023-12-18T02:30:26.158Z,99.90
2023-12-18T02:33:28.005Z,99.90
2023-12-18T02:36:29.716Z,99.90
2023-12-18T02:39:31.409Z,99.90
2023-12-18T02:42:33.120Z,99.90
2023-12-18T02:45:34.775Z,99.90
2023-12-18T02:48:36.468Z,99.90
2023-12-18T02:51:38.199Z,99.90
2023-12-18T02:54:39.930Z,99.90
2023-12-18T02:57:42.103Z,99.90
2023-12-18T03:00:44.106Z,99.90
2023-12-18T03:03:45.848Z,99.90
2023-12-18T03:06:47.535Z,99.90
2023-12-18T03:09:49.249Z,99.90
2023-12-18T03:12:50.935Z,99.90
2023-12-18T03:15:52.942Z,99.90
2023-12-18T03:18:54.749Z,99.90
2023-12-18T03:21:56.375Z,99.90
2023-12-18T03:24:58.037Z,99.90
2023-12-18T03:27:59.681Z,99.90
2023-12-18T03:31:01.320Z,99.90
2023-12-18T03:34:02.975Z,99.90
2023-12-18T03:37:04.648Z,99.90
2023-12-18T03:40:06.212Z,99.90
2023-12-18T03:43:07.851Z,99.90
2023-12-18T03:46:09.413Z,99.90
2023-12-18T03:49:11.134Z,99.90
2023-12-18T03:52:12.795Z,99.90
2023-12-18T03:55:14.352Z,99.90
2023-12-18T03:58:15.896Z,99.90
2023-12-18T04:01:17.582Z,99.90
2023-12-18T04:04:19.321Z,99.90
2023-12-18T04:07:21.007Z,99.90
2023-12-18T04:10:22.626Z,99.90
2023-12-18T04:13:24.584Z,99.90
2023-12-18T04:16:26.179Z,99.90
2023-12-18T04:19:27.910Z,99.90
2023-12-18T04:22:29.761Z,99.90
2023-12-18T04:25:31.392Z,99.90
2023-12-18T04:28:33.063Z,99.90
2023-12-18T04:31:34.762Z,99.90
2023-12-18T04:34:36.587Z,99.90
2023-12-18T04:37:38.277Z,99.90
2023-12-18T04:40:39.900Z,99.90
2023-12-18T04:43:42.725Z,99.90
2023-12-18T04:46:44.345Z,99.90
2023-12-18T04:49:46.253Z,99.90
2023-12-18T04:52:48.039Z,99.90
2023-12-18T04:55:49.639Z,99.90
2023-12-18T04:58:51.249Z,99.90
2023-12-18T05:01:52.858Z,99.90
2023-12-18T05:04:54.669Z,99.90
2023-12-18T05:07:56.368Z,99.90
2023-12-18T05:10:57.941Z,99.90
2023-12-18T05:13:59.580Z,99.90
2023-12-18T05:17:01.311Z,99.90
2023-12-18T05:20:03.114Z,99.90
2023-12-18T05:23:04.753Z,99.90
2023-12-18T05:26:06.413Z,99.90
2023-12-18T05:29:08.040Z,99.90
2023-12-18T05:32:09.712Z,99.90
2023-12-18T05:35:11.642Z,99.90
2023-12-18T05:38:13.504Z,99.90
2023-12-18T05:41:15.134Z,99.90
2023-12-18T05:44:16.783Z,99.90
2023-12-18T05:47:18.371Z,99.90
2023-12-18T05:50:19.959Z,99.90
2023-12-18T05:53:22.434Z,99.90
2023-12-18T05:56:24.192Z,99.90
2023-12-18T05:59:25.794Z,99.90
2023-12-18T06:02:27.380Z,99.90
2023-12-18T06:05:28.973Z,99.90
2023-12-18T06:08:30.589Z,99.90
2023-12-18T06:11:32.363Z,99.90
2023-12-18T06:14:34.140Z,99.90
2023-12-18T06:17:35.737Z,99.90
2023-12-18T06:20:38.754Z,99.90
2023-12-18T06:23:40.701Z,99.90
2023-12-18T06:26:42.394Z,99.90
2023-12-18T06:29:44.293Z,99.60
2023-12-18T06:32:46.377Z,99.30
2023-12-18T06:35:48.212Z,99.80
2023-12-18T06:38:49.780Z,99.60
2023-12-18T06:41:51.513Z,98.90
2023-12-18T06:44:53.165Z,99.30
2023-12-18T06:47:54.802Z,99.60
2023-12-18T06:50:56.633Z,99.70
2023-12-18T06:53:58.226Z,99.90
2023-12-18T06:57:00.255Z,99.90
2023-12-18T07:00:01.926Z,99.90
2023-12-18T07:03:03.575Z,99.80
2023-12-18T07:06:05.526Z,99.20
2023-12-18T07:09:07.260Z,99.10
2023-12-18T07:12:09.080Z,99.10
2023-12-18T07:15:10.786Z,99.30
2023-12-18T07:18:15.037Z,99.60
2023-12-18T07:21:16.824Z,99.00
2023-12-18T07:24:18.603Z,99.10
2023-12-18T07:27:20.316Z,99.50
2023-12-18T07:30:22.201Z,99.40
2023-12-18T07:33:24.099Z,98.50
2023-12-18T07:36:25.902Z,98.70
2023-12-18T07:39:27.913Z,98.80
2023-12-18T07:42:29.624Z,98.70
2023-12-18T07:45:31.410Z,98.70
2023-12-18T07:48:33.294Z,99.10
2023-12-18T07:51:35.528Z,99.00
2023-12-18T07:54:37.215Z,99.20
2023-12-18T07:57:41.412Z,99.40
2023-12-18T08:00:43.202Z,99.80
2023-12-18T08:03:44.974Z,99.90
2023-12-18T08:06:48.583Z,99.90
2023-12-18T08:09:50.260Z,99.90
2023-12-18T08:12:52.705Z,99.90
2023-12-18T08:15:54.389Z,99.90
2023-12-18T08:18:56.112Z,99.90
2023-12-18T08:21:58.235Z,99.90
2023-12-18T08:25:02.069Z,99.90
2023-12-18T08:28:03.822Z,99.90
2023-12-18T08:31:05.619Z,99.90
2023-12-18T08:34:08.022Z,99.90
2023-12-18T08:37:09.928Z,99.90
2023-12-18T08:40:11.630Z,99.90
2023-12-18T08:43:13.451Z,99.40
2023-12-18T08:46:15.111Z,99.50
2023-12-18T08:49:17.277Z,98.70
2023-12-18T08:52:18.952Z,98.60
2023-12-18T08:55:20.559Z,98.50
2023-12-18T08:58:22.956Z,97.30
2023-12-18T09:01:24.938Z,97.80
2023-12-18T09:04:26.939Z,97.60
2023-12-18T09:07:28.549Z,97.20
2023-12-18T09:10:31.867Z,97.40
2023-12-18T09:13:34.961Z,96.10
2023-12-18T09:16:38.441Z,96.80
2023-12-18T09:19:40.842Z,96.20
2023-12-18T09:22:43.869Z,93.90
2023-12-18T09:25:46.028Z,94.10
2023-12-18T09:28:48.014Z,94.30
2023-12-18T09:31:50.080Z,94.30
2023-12-18T09:34:52.233Z,93.70
2023-12-18T09:37:54.776Z,92.40
2023-12-18T09:40:56.683Z,92.30
2023-12-18T09:43:58.718Z,92.30
2023-12-18T09:47:01.178Z,92.20
2023-12-18T09:50:03.209Z,92.10
2023-12-18T09:53:05.127Z,91.70
2023-12-18T09:56:07.945Z,91.60
2023-12-18T09:59:09.997Z,92.60
2023-12-18T10:02:11.933Z,93.40
2023-12-18T10:05:14.413Z,92.70
2023-12-18T10:08:16.456Z,92.20
2023-12-18T10:11:18.521Z,91.80
2023-12-18T10:14:20.908Z,92.40
2023-12-18T10:17:23.419Z,92.30
2023-12-18T10:20:25.460Z,92.50
2023-12-18T10:23:27.757Z,91.90
2023-12-18T10:26:33.181Z,92.30
2023-12-18T10:29:35.520Z,92.20
2023-12-18T10:32:38.285Z,92.20
2023-12-18T10:35:40.749Z,91.50
2023-12-18T10:38:42.940Z,91.90
2023-12-18T10:41:44.919Z,92.30
2023-12-18T10:44:46.978Z,91.60
2023-12-18T10:47:48.612Z,90.50
2023-12-18T10:50:50.273Z,90.80
2023-12-18T10:53:51.891Z,90.90
2023-12-18T10:56:53.890Z,91.40
2023-12-18T10:59:55.582Z,91.50
2023-12-18T11:02:57.485Z,91.20
2023-12-18T11:05:59.072Z,91.00
2023-12-18T11:09:00.723Z,91.10
2023-12-18T11:12:02.299Z,91.30
2023-12-18T11:15:04.288Z,90.40
2023-12-18T11:18:06.045Z,90.50
2023-12-18T11:21:07.657Z,90.50
2023-12-18T11:24:09.357Z,91.50
2023-12-18T11:27:11.116Z,91.60
2023-12-18T11:30:12.845Z,91.10
2023-12-18T11:33:14.778Z,90.30
2023-12-18T11:36:18.683Z,90.60
2023-12-18T11:39:20.685Z,91.60
2023-12-18T11:42:22.721Z,91.30
2023-12-18T11:45:24.529Z,90.60
2023-12-18T11:48:26.570Z,89.00
2023-12-18T11:51:28.593Z,89.60
2023-12-18T11:54:30.773Z,86.60
2023-12-18T11:57:32.759Z,86.10
2023-12-18T12:00:34.731Z,81.50
2023-12-18T12:03:36.898Z,62.00
2023-12-18T12:06:40.885Z,43.60
2023-12-18T12:09:45.216Z,17.60
2023-12-18T12:12:47.361Z,17.60
2023-12-18T12:15:49.046Z,26.20
2023-12-18T12:18:56.284Z,36.10
2023-12-18T12:21:58.577Z,44.10
2023-12-18T12:25:00.739Z,49.60
2023-12-18T12:28:02.745Z,59.70
2023-12-18T12:31:05.106Z,61.60
2023-12-18T12:34:06.987Z,65.70
2023-12-18T12:37:10.389Z,67.40
2023-12-18T12:40:12.645Z,71.20
2023-12-18T12:43:14.381Z,74.10
2023-12-18T12:46:20.495Z,74.10
2023-12-18T12:49:25.106Z,74.00
2023-12-18T12:52:27.005Z,73.90
2023-12-18T12:55:28.866Z,75.70
2023-12-18T12:58:35.086Z,79.00
2023-12-18T13:01:37.096Z,76.00
2023-12-18T13:04:38.986Z,74.00
2023-12-18T13:07:41.216Z,77.50
2023-12-18T13:10:43.197Z,78.50
2023-12-18T13:13:44.884Z,77.10
2023-12-18T13:16:46.728Z,80.60
2023-12-18T13:19:48.537Z,79.90
2023-12-18T13:22:50.453Z,81.30
2023-12-18T13:25:52.129Z,81.70
2023-12-18T13:28:53.733Z,85.00
2023-12-18T13:31:55.487Z,83.20
2023-12-18T13:34:57.818Z,82.30
2023-12-18T13:37:59.523Z,87.10
2023-12-18T13:41:01.640Z,88.30
2023-12-18T13:44:03.283Z,87.10
2023-12-18T13:47:04.880Z,90.00
2023-12-18T13:50:06.593Z,88.80
2023-12-18T13:53:08.275Z,90.50
2023-12-18T13:56:10.839Z,91.10
2023-12-18T13:59:12.596Z,92.30
2023-12-18T14:02:14.648Z,92.00
2023-12-18T14:05:16.305Z,92.10
2023-12-18T14:08:18.280Z,91.40
2023-12-18T14:11:19.922Z,92.00
2023-12-18T14:14:21.550Z,92.60
2023-12-18T14:17:26.127Z,92.50
2023-12-18T14:20:29.853Z,92.60
2023-12-18T14:23:31.544Z,93.00
2023-12-18T14:26:33.324Z,93.40
2023-12-18T14:29:35.038Z,94.20
2023-12-18T14:32:36.746Z,93.90
2023-12-18T14:35:38.429Z,94.80
2023-12-18T14:38:40.128Z,94.30
2023-12-18T14:41:41.850Z,94.90
2023-12-18T14:44:43.423Z,94.80
2023-12-18T14:47:45.149Z,95.50
2023-12-18T14:50:46.836Z,95.10
2023-12-18T14:53:48.398Z,95.60
2023-12-18T14:56:54.041Z,95.70
2023-12-18T14:59:55.933Z,95.80
2023-12-18T15:02:57.823Z,96.50
2023-12-18T15:05:59.728Z,96.70
2023-12-18T15:09:01.753Z,97.10
2023-12-18T15:12:03.500Z,97.60
2023-12-18T15:15:05.245Z,97.60
2023-12-18T15:18:07.313Z,97.50
2023-12-18T15:21:08.982Z,97.70
2023-12-18T15:24:11.222Z,97.70
2023-12-18T15:27:13.249Z,98.30
2023-12-18T15:30:15.636Z,98.40
2023-12-18T15:33:18.213Z,99.10
2023-12-18T15:36:20.439Z,99.70
2023-12-18T15:39:24.207Z,99.70
2023-12-18T15:42:26.378Z,99.90
2023-12-18T15:45:28.596Z,99.90
2023-12-18T15:48:30.398Z,99.90
2023-12-18T15:51:32.421Z,99.90
2023-12-18T15:54:34.262Z,99.90
2023-12-18T15:57:36.622Z,99.90
2023-12-18T16:00:38.487Z,99.90
2023-12-18T16:03:43.302Z,99.90
2023-12-18T16:06:45.027Z,99.90
2023-12-18T16:09:48.237Z,99.90
2023-12-18T16:12:50.096Z,99.90
2023-12-18T16:15:51.907Z,99.90
2023-12-18T16:18:53.914Z,99.90
2023-12-18T16:21:56.640Z,99.90
2023-12-18T16:24:58.396Z,99.90
2023-12-18T16:28:00.364Z,99.90
2023-12-18T16:31:02.111Z,99.90
2023-12-18T16:34:03.889Z,99.90
2023-12-18T16:37:05.980Z,99.90
2023-12-18T16:40:07.564Z,99.90
2023-12-18T16:43:09.154Z,99.90
2023-12-18T16:46:10.911Z,99.90
2023-12-18T16:49:13.495Z,99.90
2023-12-18T16:52:15.275Z,99.90
2023-12-18T16:55:17.002Z,99.90
2023-12-18T16:58:18.605Z,99.90
2023-12-18T17:01:22.996Z,99.90
2023-12-18T17:04:24.894Z,99.90
2023-12-18T17:07:26.636Z,99.90
2023-12-18T17:10:28.212Z,99.90
2023-12-18T17:13:29.789Z,99.90
2023-12-18T17:16:31.371Z,99.90
2023-12-18T17:19:32.966Z,99.90
2023-12-18T17:22:34.550Z,99.90
2023-12-18T17:25:36.246Z,99.90
2023-12-18T17:28:37.863Z,99.90
2023-12-18T17:31:39.563Z,99.90
2023-12-18T17:34:41.324Z,99.90
2023-12-18T17:37:43.068Z,99.90
2023-12-18T17:40:44.643Z,99.90
2023-12-18T17:43:46.290Z,99.90
2023-12-18T17:46:48.259Z,99.90
2023-12-18T17:49:49.926Z,99.90
2023-12-18T17:52:51.801Z,99.90
2023-12-18T17:55:53.374Z,99.90
2023-12-18T17:58:56.016Z,99.90
2023-12-18T18:01:57.620Z,99.90
2023-12-18T18:04:59.275Z,99.90
2023-12-18T18:08:00.920Z,99.90
2023-12-18T18:11:02.604Z,99.90
2023-12-18T18:14:04.174Z,99.90
2023-12-18T18:17:05.781Z,99.90
2023-12-18T18:20:07.457Z,99.90
2023-12-18T18:23:09.237Z,99.90
2023-12-18T18:26:10.842Z,99.90
2023-12-18T18:29:17.302Z,99.90
2023-12-18T18:32:18.954Z,99.90
2023-12-18T18:35:21.056Z,99.90
2023-12-18T18:38:22.821Z,99.90
2023-12-18T18:41:24.557Z,99.90
2023-12-18T18:44:26.165Z,99.90
2023-12-18T18:47:27.928Z,99.90
2023-12-18T18:50:29.710Z,99.90
2023-12-18T18:53:35.597Z,99.90
2023-12-18T18:56:37.264Z,99.90
2023-12-18T18:59:39.016Z,99.90
2023-12-18T19:02:40.607Z,99.90
2023-12-18T19:05:43.990Z,99.90
2023-12-18T19:08:45.619Z,99.90
2023-12-18T19:11:47.360Z,99.90
2023-12-18T19:14:48.966Z,99.90
2023-12-18T19:17:50.856Z,99.90
2023-12-18T19:20:54.567Z,99.90
2023-12-18T19:23:56.219Z,99.90
2023-12-18T19:26:57.807Z,99.90
2023-12-18T19:29:59.436Z,99.90
2023-12-18T19:33:01.078Z,99.90
2023-12-18T19:36:08.246Z,99.90
2023-12-18T19:39:10.014Z,99.90
2023-12-18T19:42:11.611Z,99.90
2023-12-18T19:45:13.241Z,99.90
2023-12-18T19:48:15.243Z,99.90
2023-12-18T19:51:16.993Z,99.90
2023-12-18T19:54:18.966Z,99.90
2023-12-18T19:57:20.764Z,99.90
2023-12-18T20:00:23.542Z,99.90
2023-12-18T20:03:25.323Z,99.90
2023-12-18T20:06:28.437Z,99.90
2023-12-18T20:09:30.410Z,99.90
2023-12-18T20:12:32.149Z,99.90
2023-12-18T20:15:33.830Z,99.90
2023-12-18T20:18:35.613Z,99.90
2023-12-18T20:21:37.406Z,99.90
2023-12-18T20:24:39.105Z,99.90
2023-12-18T20:27:40.744Z,99.90
2023-12-18T20:30:42.421Z,99.90
2023-12-18T20:33:44.770Z,99.90
2023-12-18T20:36:46.515Z,99.90
2023-12-18T20:39:48.194Z,99.90
2023-12-18T20:42:51.489Z,99.90
2023-12-18T20:45:53.158Z,99.90
2023-12-18T20:48:54.848Z,99.90
2023-12-18T20:51:56.771Z,99.90
2023-12-18T20:55:04.161Z,99.90
2023-12-18T20:58:05.893Z,99.90
2023-12-18T21:01:09.778Z,99.90
2023-12-18T21:04:11.641Z,99.90
2023-12-18T21:07:14.839Z,99.90
2023-12-18T21:10:16.565Z,99.90
2023-12-18T21:13:19.216Z,99.90
2023-12-18T21:16:21.086Z,99.90
2023-12-18T21:19:22.730Z,99.90
2023-12-18T21:22:24.409Z,99.90
2023-12-18T21:25:26.036Z,99.90
2023-12-18T21:28:27.689Z,99.90
2023-12-18T21:31:29.420Z,99.90
2023-12-18T21:34:33.585Z,99.90
2023-12-18T21:37:35.514Z,99.90
2023-12-18T21:40:37.156Z,99.90
2023-12-18T21:43:38.737Z,99.90
2023-12-18T21:46:40.346Z,99.90
2023-12-18T21:49:42.816Z,99.90
2023-12-18T21:52:44.725Z,99.90
2023-12-18T21:55:47.073Z,99.90
2023-12-18T21:58:48.750Z,99.90
2023-12-18T22:01:50.410Z,99.90
2023-12-18T22:04:52.098Z,99.90
2023-12-18T22:07:53.642Z,99.90
2023-12-18T22:10:55.357Z,99.90
2023-12-18T22:13:56.913Z,99.90
2023-12-18T22:16:58.487Z,99.90
2023-12-18T22:20:01.533Z,99.90
2023-12-18T22:23:03.318Z,99.90
2023-12-18T22:26:04.919Z,99.90
2023-12-18T22:29:06.586Z,99.90
2023-12-18T22:32:08.156Z,99.90
2023-12-18T22:35:09.988Z,99.90
2023-12-18T22:38:11.631Z,99.90
2023-12-18T22:41:13.240Z,99.90
2023-12-18T22:44:14.843Z,99.90
2023-12-18T22:47:16.464Z,99.90
2023-12-18T22:50:18.327Z,99.90
2023-12-18T22:53:21.973Z,99.90
2023-12-18T22:56:24.663Z,99.90
2023-12-18T22:59:26.259Z,99.90
2023-12-18T23:02:27.876Z,99.90
2023-12-18T23:05:32.005Z,99.90
2023-12-18T23:08:35.159Z,99.90
2023-12-18T23:11:36.751Z,99.90
2023-12-18T23:14:38.733Z,99.90
2023-12-18T23:17:40.413Z,99.90
2023-12-18T23:20:42.077Z,99.90
2023-12-18T23:23:43.770Z,99.90
2023-12-18T23:26:45.357Z,99.90
2023-12-18T23:29:46.981Z,99.90
2023-12-18T23:32:48.883Z,99.90
2023-12-18T23:35:50.639Z,99.90
2023-12-18T23:38:52.301Z,99.90
2023-12-18T23:41:53.921Z,99.90
2023-12-18T23:44:55.506Z,99.90
2023-12-18T23:47:57.264Z,99.90
2023-12-18T23:50:58.884Z,99.90
2023-12-18T23:54:00.465Z,99.90
2023-12-18T23:57:02.075Z,99.90
